Garland's Hourly Summary for Monday, July 9, 2018
Hour Temp
(f)
RH
(%)
Solar Rad.
(MJ/m2)
Rainfall
(in)
Wind
(mph)
7/9/2018 12:00 AM 80 59 0 0 2.71
7/9/2018 1:00 AM 79 63 0 0 3.3
7/9/2018 2:00 AM 78 67 0 0 2.65
7/9/2018 3:00 AM 77 71 0 0 1.73
7/9/2018 4:00 AM 76 74 0 0 3.35
7/9/2018 5:00 AM 76 74 0 0 2.87
7/9/2018 6:00 AM 75 75 0 0 1.25
7/9/2018 7:00 AM 75 77 0.03 0 0.22
7/9/2018 8:00 AM 76 70 0.29 0 0.71
7/9/2018 9:00 AM 79 66 1.07 0 1.05
7/9/2018 10:00 AM 82 60 1.75 0 1.65
7/9/2018 11:00 AM 84 52 2.14 0 3.34
7/9/2018 12:00 PM 84 49 2.01 0 5.01
7/9/2018 1:00 PM 86 45 2.15 0 5.03
7/9/2018 2:00 PM 86 47 2.21 0 7.61
7/9/2018 3:00 PM 87 44 2.87 0 7.63
7/9/2018 4:00 PM 83 46 0.31 0 5.81
7/9/2018 5:00 PM 82 57 0.59 0 2.89
7/9/2018 6:00 PM 85 51 1.51 0 3.9
7/9/2018 7:00 PM 81 51 0.54 0.04 7.71
7/9/2018 8:00 PM 79 64 0.27 0 4.93
7/9/2018 9:00 PM 79 64 0.04 0 4.66
7/9/2018 10:00 PM 78 68 0 0 4.06
7/9/2018 11:00 PM 78 70 0 0 3.64
Data Summary 80 61 17.78 0.04 3.65